createdAt,value
2023-03-20T00:00:18.474Z,100.00
2023-03-20T00:02:50.572Z,100.00
2023-03-20T00:05:22.179Z,100.00
2023-03-20T00:07:54.055Z,100.00
2023-03-20T00:10:25.823Z,100.00
2023-03-20T00:12:57.452Z,100.00
2023-03-20T00:15:28.979Z,100.00
2023-03-20T00:18:00.790Z,100.00
2023-03-20T00:20:32.279Z,100.00
2023-03-20T00:23:05.310Z,100.00
2023-03-20T00:25:37.059Z,100.00
2023-03-20T00:28:08.694Z,100.00
2023-03-20T00:30:40.199Z,100.00
2023-03-20T00:33:11.723Z,100.00
2023-03-20T00:35:43.299Z,100.00
2023-03-20T00:38:15.181Z,100.00
2023-03-20T00:40:46.730Z,100.00
2023-03-20T00:43:18.264Z,100.00
2023-03-20T00:45:49.778Z,100.00
2023-03-20T00:48:21.574Z,100.00
2023-03-20T00:50:53.550Z,100.00
2023-03-20T00:53:25.239Z,100.00
2023-03-20T00:55:56.766Z,100.00
2023-03-20T00:58:28.714Z,100.00
2023-03-20T01:01:00.477Z,100.00
2023-03-20T01:03:32.456Z,100.00
2023-03-20T01:06:03.976Z,100.00
2023-03-20T01:08:35.825Z,100.00
2023-03-20T01:11:07.344Z,100.00
2023-03-20T01:13:39.196Z,100.00
2023-03-20T01:16:10.724Z,100.00
2023-03-20T01:18:42.541Z,100.00
2023-03-20T01:21:14.042Z,100.00
2023-03-20T01:23:46.026Z,100.00
2023-03-20T01:26:17.543Z,100.00
2023-03-20T01:28:49.466Z,100.00
2023-03-20T01:31:21.420Z,100.00
2023-03-20T01:33:53.311Z,100.00
2023-03-20T01:36:24.907Z,100.00
2023-03-20T01:38:56.432Z,100.00
2023-03-20T01:41:27.950Z,100.00
2023-03-20T01:43:59.547Z,100.00
2023-03-20T01:46:32.028Z,100.00
2023-03-20T01:49:05.992Z,100.00
2023-03-20T01:51:37.751Z,100.00
2023-03-20T01:54:09.983Z,100.00
2023-03-20T01:56:42.287Z,100.00
2023-03-20T01:59:13.809Z,100.00
2023-03-20T02:01:45.775Z,100.00
2023-03-20T02:04:17.683Z,100.00
2023-03-20T02:06:49.361Z,100.00
2023-03-20T02:09:20.974Z,100.00
2023-03-20T02:11:52.872Z,100.00
2023-03-20T02:14:24.399Z,100.00
2023-03-20T02:16:55.957Z,100.00
2023-03-20T02:19:27.478Z,100.00
2023-03-20T02:21:59.168Z,100.00
2023-03-20T02:24:30.918Z,100.00
2023-03-20T02:27:02.577Z,100.00
2023-03-20T02:29:34.101Z,100.00
2023-03-20T02:32:06.064Z,100.00
2023-03-20T02:34:37.569Z,100.00
2023-03-20T02:37:09.091Z,100.00
2023-03-20T02:39:40.887Z,100.00
2023-03-20T02:42:12.740Z,100.00
2023-03-20T02:44:44.242Z,100.00
2023-03-20T02:47:16.171Z,100.00
2023-03-20T02:49:47.694Z,100.00
2023-03-20T02:52:19.825Z,100.00
2023-03-20T02:54:51.441Z,100.00
2023-03-20T02:57:23.693Z,100.00
2023-03-20T02:59:55.298Z,100.00
2023-03-20T03:02:27.227Z,100.00
2023-03-20T03:04:58.783Z,100.00
2023-03-20T03:07:31.314Z,100.00
2023-03-20T03:10:02.841Z,100.00
2023-03-20T03:12:34.607Z,100.00
2023-03-20T03:15:06.269Z,100.00
2023-03-20T03:17:38.016Z,100.00
2023-03-20T03:20:09.545Z,100.00
2023-03-20T03:22:41.586Z,100.00
2023-03-20T03:25:13.700Z,100.00
2023-03-20T03:27:45.723Z,100.00
2023-03-20T03:30:17.408Z,100.00
2023-03-20T03:32:48.959Z,100.00
2023-03-20T03:35:20.709Z,100.00
2023-03-20T03:37:52.266Z,100.00
2023-03-20T03:40:24.530Z,100.00
2023-03-20T03:42:56.311Z,100.00
2023-03-20T03:45:27.925Z,100.00
2023-03-20T03:47:59.566Z,100.00
2023-03-20T03:50:31.276Z,100.00
2023-03-20T03:53:03.220Z,100.00
2023-03-20T03:55:35.258Z,100.00
2023-03-20T03:58:07.438Z,100.00
2023-03-20T04:00:39.012Z,100.00
2023-03-20T04:03:11.037Z,100.00
2023-03-20T04:05:42.545Z,100.00
2023-03-20T04:08:14.370Z,100.00
2023-03-20T04:10:46.013Z,100.00
2023-03-20T04:13:17.894Z,100.00
2023-03-20T04:15:49.577Z,100.00
2023-03-20T04:18:21.719Z,100.00
2023-03-20T04:20:53.594Z,100.00
2023-03-20T04:23:25.142Z,100.00
2023-03-20T04:25:56.763Z,100.00
2023-03-20T04:28:28.578Z,100.00
2023-03-20T04:31:00.187Z,100.00
2023-03-20T04:33:32.132Z,100.00
2023-03-20T04:36:03.675Z,100.00
2023-03-20T04:38:35.564Z,100.00
2023-03-20T04:41:07.172Z,100.00
2023-03-20T04:43:39.320Z,100.00
2023-03-20T04:46:10.952Z,100.00
2023-03-20T04:48:42.705Z,100.00
2023-03-20T04:51:14.241Z,100.00
2023-03-20T04:53:45.810Z,100.00
2023-03-20T04:56:17.333Z,100.00
2023-03-20T04:58:49.215Z,100.00
2023-03-20T05:01:20.815Z,100.00
2023-03-20T05:03:52.846Z,100.00
2023-03-20T05:06:24.368Z,100.00
2023-03-20T05:08:56.020Z,100.00
2023-03-20T05:11:27.532Z,100.00
2023-03-20T05:13:59.103Z,100.00
2023-03-20T05:16:30.624Z,100.00
2023-03-20T05:19:02.160Z,100.00
2023-03-20T05:21:33.724Z,100.00
2023-03-20T05:24:05.867Z,100.00
2023-03-20T05:26:37.472Z,100.00
2023-03-20T05:29:09.494Z,100.00
2023-03-20T05:31:41.310Z,100.00
2023-03-20T05:34:13.126Z,100.00
2023-03-20T05:36:44.645Z,100.00
2023-03-20T05:39:16.462Z,100.00
2023-03-20T05:41:47.986Z,100.00
2023-03-20T05:44:19.834Z,100.00
2023-03-20T05:46:51.373Z,100.00
2023-03-20T05:49:23.306Z,100.00
2023-03-20T05:51:54.829Z,100.00
2023-03-20T05:54:26.627Z,100.00
2023-03-20T05:56:59.262Z,100.00
2023-03-20T05:59:31.275Z,100.00
2023-03-20T06:02:02.772Z,100.00
2023-03-20T06:04:35.596Z,100.00
2023-03-20T06:07:07.404Z,100.00
2023-03-20T06:09:39.288Z,100.00
2023-03-20T06:12:11.082Z,100.00
2023-03-20T06:14:42.838Z,100.00
2023-03-20T06:17:14.342Z,100.00
2023-03-20T06:19:46.225Z,100.00
2023-03-20T06:22:17.721Z,100.00
2023-03-20T06:24:49.537Z,100.00
2023-03-20T06:27:21.474Z,100.00
2023-03-20T06:29:53.231Z,100.00
2023-03-20T06:32:24.776Z,100.00
2023-03-20T06:34:56.293Z,100.00
2023-03-20T06:37:27.798Z,100.00
2023-03-20T06:39:59.314Z,100.00
2023-03-20T06:42:30.910Z,100.00
2023-03-20T06:45:02.819Z,100.00
2023-03-20T06:47:34.334Z,100.00
2023-03-20T06:50:06.287Z,100.00
2023-03-20T06:52:37.960Z,100.00
2023-03-20T06:55:09.892Z,100.00
2023-03-20T06:57:41.399Z,100.00
2023-03-20T07:00:13.282Z,100.00
2023-03-20T07:02:45.060Z,100.00
2023-03-20T07:05:16.997Z,100.00
2023-03-20T07:07:48.754Z,100.00
2023-03-20T07:10:20.608Z,100.00
2023-03-20T07:12:52.117Z,100.00
2023-03-20T07:15:24.051Z,100.00
2023-03-20T07:17:55.896Z,100.00
2023-03-20T07:20:27.686Z,100.00
2023-03-20T07:22:59.199Z,100.00
2023-03-20T07:25:42.325Z,100.00
2023-03-20T07:28:14.869Z,100.00
2023-03-20T07:30:46.365Z,100.00
2023-03-20T07:33:17.939Z,100.00
2023-03-20T07:35:49.483Z,100.00
2023-03-20T07:38:21.412Z,100.00
2023-03-20T07:40:52.954Z,100.00
2023-03-20T07:43:24.467Z,100.00
2023-03-20T07:45:56.308Z,100.00
2023-03-20T07:48:28.232Z,100.00
2023-03-20T07:50:59.772Z,100.00
2023-03-20T07:53:31.827Z,100.00
2023-03-20T07:56:03.612Z,100.00
2023-03-20T07:58:35.355Z,100.00
2023-03-20T08:01:06.865Z,100.00
2023-03-20T08:03:39.972Z,100.00
2023-03-20T08:06:11.576Z,100.00
2023-03-20T08:08:45.331Z,100.00
2023-03-20T08:11:16.957Z,100.00
2023-03-20T08:13:48.828Z,100.00
2023-03-20T08:16:20.430Z,100.00
2023-03-20T08:18:53.582Z,100.00
2023-03-20T08:21:25.500Z,100.00
2023-03-20T08:23:57.010Z,100.00
2023-03-20T08:26:28.609Z,100.00
2023-03-20T08:29:00.175Z,100.00
2023-03-20T08:31:31.881Z,100.00
2023-03-20T08:34:03.713Z,100.00
2023-03-20T08:36:35.220Z,100.00
2023-03-20T08:39:07.254Z,100.00
2023-03-20T08:41:45.763Z,100.00
2023-03-20T08:44:17.571Z,100.00
2023-03-20T08:46:49.123Z,100.00
2023-03-20T08:49:21.102Z,100.00
2023-03-20T08:51:52.725Z,100.00
2023-03-20T08:54:24.662Z,96.59
2023-03-20T08:56:56.461Z,94.41
2023-03-20T08:59:28.305Z,91.80
2023-03-20T09:01:59.890Z,88.18
2023-03-20T09:04:31.674Z,89.02
2023-03-20T09:07:03.244Z,88.91
2023-03-20T09:09:35.104Z,91.80
2023-03-20T09:12:07.419Z,92.87
2023-03-20T09:14:39.397Z,93.61
2023-03-20T09:17:10.900Z,91.75
2023-03-20T09:19:44.943Z,90.71
2023-03-20T09:22:18.105Z,89.68
2023-03-20T09:24:49.958Z,89.85
2023-03-20T09:27:21.650Z,88.13
2023-03-20T09:29:53.524Z,89.70
2023-03-20T09:32:25.184Z,89.38
2023-03-20T09:34:56.736Z,88.54
2023-03-20T09:37:28.232Z,86.92
2023-03-20T09:39:59.812Z,85.42
2023-03-20T09:42:31.311Z,79.96
2023-03-20T09:45:03.783Z,84.47
2023-03-20T09:47:35.279Z,79.50
2023-03-20T09:50:07.022Z,76.38
2023-03-20T09:52:38.554Z,76.25
2023-03-20T09:55:10.422Z,78.17
2023-03-20T09:57:41.940Z,77.73
2023-03-20T10:00:13.517Z,81.10
2023-03-20T10:02:45.351Z,78.30
2023-03-20T10:05:17.023Z,78.11
2023-03-20T10:07:48.519Z,79.77
2023-03-20T10:10:20.821Z,79.96
2023-03-20T10:12:52.395Z,79.92
2023-03-20T10:15:24.419Z,79.57
2023-03-20T10:17:56.403Z,81.17
2023-03-20T10:20:28.161Z,82.31
2023-03-20T10:22:59.762Z,82.06
2023-03-20T10:25:32.556Z,79.74
2023-03-20T10:28:04.401Z,77.62
2023-03-20T10:30:36.558Z,77.49
2023-03-20T10:33:08.225Z,73.86
2023-03-20T10:35:40.881Z,73.21
2023-03-20T10:38:12.386Z,76.02
2023-03-20T10:40:44.232Z,77.45
2023-03-20T10:43:16.831Z,76.82
2023-03-20T10:45:48.887Z,77.71
2023-03-20T10:48:20.405Z,75.89
2023-03-20T10:50:52.357Z,74.94
2023-03-20T10:53:24.248Z,77.22
2023-03-20T10:55:56.286Z,77.06
2023-03-20T10:58:27.813Z,78.38
2023-03-20T11:00:59.582Z,77.13
2023-03-20T11:03:31.698Z,77.67
2023-03-20T11:06:09.692Z,76.44
2023-03-20T11:08:41.960Z,77.54
2023-03-20T11:11:13.685Z,80.59
2023-03-20T11:13:45.450Z,80.02
2023-03-20T11:16:17.327Z,79.20
2023-03-20T11:18:52.355Z,77.71
2023-03-20T11:21:24.251Z,79.28
2023-03-20T11:23:55.804Z,76.70
2023-03-20T11:26:27.573Z,77.42
2023-03-20T11:28:59.093Z,76.46
2023-03-20T11:31:31.322Z,78.54
2023-03-20T11:34:02.857Z,78.74
2023-03-20T11:36:35.896Z,78.94
2023-03-20T11:39:07.381Z,80.07
2023-03-20T11:41:40.733Z,81.56
2023-03-20T11:44:12.285Z,81.82
2023-03-20T11:46:44.453Z,82.46
2023-03-20T11:49:16.128Z,83.32
2023-03-20T11:51:48.056Z,84.03
2023-03-20T11:54:19.600Z,84.25
2023-03-20T11:56:51.455Z,81.21
2023-03-20T11:59:23.009Z,78.63
2023-03-20T12:01:54.609Z,74.28
2023-03-20T12:04:26.146Z,74.14
2023-03-20T12:06:57.680Z,74.53
2023-03-20T12:09:29.176Z,74.38
2023-03-20T12:12:00.701Z,75.78
2023-03-20T12:14:32.261Z,76.26
2023-03-20T12:17:04.114Z,77.39
2023-03-20T12:19:35.718Z,78.08
2023-03-20T12:22:07.534Z,77.37
2023-03-20T12:24:39.086Z,75.77
2023-03-20T12:27:11.078Z,72.42
2023-03-20T12:29:42.620Z,69.64
2023-03-20T12:32:14.370Z,69.07
2023-03-20T12:34:46.969Z,68.83
2023-03-20T12:37:18.698Z,67.83
2023-03-20T12:39:50.370Z,67.50
2023-03-20T12:42:22.691Z,68.52
2023-03-20T12:44:54.203Z,68.31
2023-03-20T12:47:25.993Z,69.73
2023-03-20T12:49:57.511Z,71.33
2023-03-20T12:52:29.409Z,71.52
2023-03-20T12:55:01.544Z,73.52
2023-03-20T12:57:33.046Z,74.07
2023-03-20T13:00:04.531Z,73.89
2023-03-20T13:02:36.309Z,73.75
2023-03-20T13:05:07.862Z,71.67
2023-03-20T13:07:39.743Z,72.89
2023-03-20T13:10:11.289Z,71.69
2023-03-20T13:12:43.181Z,71.04
2023-03-20T13:15:14.919Z,72.41
2023-03-20T13:17:46.654Z,72.40
2023-03-20T13:20:18.541Z,74.11
2023-03-20T13:22:50.657Z,74.70
2023-03-20T13:25:22.536Z,74.35
2023-03-20T13:27:54.039Z,74.39
2023-03-20T13:30:25.962Z,74.43
2023-03-20T13:32:57.522Z,73.26
2023-03-20T13:35:29.409Z,72.66
2023-03-20T13:38:00.913Z,71.41
2023-03-20T13:40:32.618Z,69.58
2023-03-20T13:43:04.116Z,69.21
2023-03-20T13:45:36.157Z,66.99
2023-03-20T13:48:07.658Z,69.84
2023-03-20T13:50:39.477Z,68.77
2023-03-20T13:53:11.583Z,70.81
2023-03-20T13:55:43.264Z,71.42
2023-03-20T13:58:14.774Z,72.50
2023-03-20T14:00:46.733Z,72.81
2023-03-20T14:03:19.207Z,74.06
2023-03-20T14:05:51.222Z,74.25
2023-03-20T14:08:22.775Z,74.94
2023-03-20T14:10:54.360Z,75.38
2023-03-20T14:13:27.990Z,76.51
2023-03-20T14:15:59.897Z,78.21
2023-03-20T14:18:31.509Z,78.93
2023-03-20T14:21:03.241Z,78.88
2023-03-20T14:23:35.070Z,80.56
2023-03-20T14:26:06.915Z,81.89
2023-03-20T14:28:38.413Z,82.96
2023-03-20T14:31:10.205Z,85.67
2023-03-20T14:33:41.719Z,84.70
2023-03-20T14:36:13.624Z,88.00
2023-03-20T14:38:45.216Z,90.62
2023-03-20T14:41:16.977Z,94.29
2023-03-20T14:43:48.496Z,95.64
2023-03-20T14:46:20.028Z,95.59
2023-03-20T14:48:51.546Z,95.79
2023-03-20T14:51:23.096Z,96.19
2023-03-20T14:53:56.767Z,96.95
2023-03-20T14:56:28.961Z,98.75
2023-03-20T14:59:00.481Z,98.26
2023-03-20T15:01:32.577Z,96.91
2023-03-20T15:04:04.074Z,96.68
2023-03-20T15:06:35.745Z,96.56
2023-03-20T15:09:07.435Z,94.74
2023-03-20T15:11:39.315Z,93.46
2023-03-20T15:14:10.856Z,94.73
2023-03-20T15:16:42.796Z,91.98
2023-03-20T15:19:14.304Z,93.56
2023-03-20T15:21:46.330Z,91.08
2023-03-20T15:24:17.834Z,90.65
2023-03-20T15:26:49.699Z,90.88
2023-03-20T15:29:21.242Z,90.17
2023-03-20T15:32:06.471Z,92.00
2023-03-20T15:34:44.208Z,91.08
2023-03-20T15:37:16.273Z,91.96
2023-03-20T15:39:48.001Z,91.78
2023-03-20T15:42:19.944Z,91.45
2023-03-20T15:44:52.100Z,90.79
2023-03-20T15:47:23.998Z,91.16
2023-03-20T15:49:55.700Z,90.35
2023-03-20T15:52:28.233Z,91.22
2023-03-20T15:54:59.844Z,91.01
2023-03-20T15:57:33.112Z,90.87
2023-03-20T16:00:06.425Z,91.45
2023-03-20T16:02:38.320Z,90.83
2023-03-20T16:05:09.832Z,90.74
2023-03-20T16:07:41.408Z,90.31
2023-03-20T16:10:12.921Z,90.89
2023-03-20T16:12:44.735Z,90.78
2023-03-20T16:15:16.839Z,90.86
2023-03-20T16:17:48.739Z,91.35
2023-03-20T16:20:20.274Z,92.32
2023-03-20T16:22:52.196Z,91.81
2023-03-20T16:25:23.685Z,92.40
2023-03-20T16:27:55.423Z,92.81
2023-03-20T16:30:27.029Z,92.12
2023-03-20T16:32:58.577Z,92.90
2023-03-20T16:35:30.382Z,92.31
2023-03-20T16:38:02.491Z,93.31
2023-03-20T16:40:34.183Z,93.08
2023-03-20T16:43:06.560Z,93.04
2023-03-20T16:45:38.395Z,94.71
2023-03-20T16:48:10.327Z,93.89
2023-03-20T16:50:41.911Z,92.50
2023-03-20T16:53:13.602Z,93.04
2023-03-20T16:55:45.103Z,93.70
2023-03-20T16:58:16.944Z,95.33
2023-03-20T17:00:48.564Z,94.78
2023-03-20T17:03:20.213Z,94.40
2023-03-20T17:05:51.751Z,94.64
2023-03-20T17:08:24.097Z,94.89
2023-03-20T17:10:55.813Z,94.41
2023-03-20T17:13:27.712Z,94.85
2023-03-20T17:15:59.583Z,95.68
2023-03-20T17:18:31.193Z,94.71
2023-03-20T17:21:02.960Z,94.82
2023-03-20T17:23:34.471Z,94.93
2023-03-20T17:26:06.021Z,96.43
2023-03-20T17:28:38.037Z,95.90
2023-03-20T17:31:10.710Z,95.91
2023-03-20T17:33:42.253Z,96.27
2023-03-20T17:36:14.056Z,96.37
2023-03-20T17:38:45.619Z,97.14
2023-03-20T17:41:17.411Z,96.88
2023-03-20T17:43:49.037Z,97.40
2023-03-20T17:46:20.785Z,98.57
2023-03-20T17:48:52.360Z,98.12
2023-03-20T17:51:24.059Z,97.54
2023-03-20T17:53:57.773Z,97.70
2023-03-20T17:56:33.111Z,97.94
2023-03-20T17:59:06.490Z,97.53
2023-03-20T18:01:38.616Z,97.74
2023-03-20T18:04:10.353Z,97.42
2023-03-20T18:06:42.415Z,97.39
2023-03-20T18:09:15.267Z,98.13
2023-03-20T18:11:46.876Z,98.79
2023-03-20T18:14:19.335Z,99.15
2023-03-20T18:16:51.342Z,98.53
2023-03-20T18:19:23.064Z,97.71
2023-03-20T18:21:54.598Z,97.35
2023-03-20T18:24:26.160Z,97.74
2023-03-20T18:26:59.033Z,97.30
2023-03-20T18:29:30.620Z,97.71
2023-03-20T18:32:02.271Z,97.66
2023-03-20T18:34:33.789Z,97.33
2023-03-20T18:37:08.297Z,97.28
2023-03-20T18:39:39.892Z,96.82
2023-03-20T18:42:11.809Z,96.81
2023-03-20T18:44:43.311Z,96.38
2023-03-20T18:47:15.126Z,96.10
2023-03-20T18:49:46.738Z,95.66
2023-03-20T18:52:18.345Z,94.90
2023-03-20T18:54:51.861Z,94.56
2023-03-20T18:57:23.712Z,94.94
2023-03-20T18:59:55.340Z,95.31
2023-03-20T19:02:26.923Z,95.01
2023-03-20T19:04:58.428Z,94.72
2023-03-20T19:07:30.257Z,94.82
2023-03-20T19:10:01.745Z,94.39
2023-03-20T19:12:33.498Z,94.05
2023-03-20T19:15:05.116Z,93.79
2023-03-20T19:17:37.006Z,94.05
2023-03-20T19:20:08.504Z,93.66
2023-03-20T19:22:40.394Z,94.08
2023-03-20T19:25:11.881Z,93.93
2023-03-20T19:27:43.646Z,94.49
2023-03-20T19:30:15.347Z,93.90
2023-03-20T19:32:47.067Z,93.74
2023-03-20T19:38:10.359Z,93.95
2023-03-20T19:40:43.282Z,93.08
2023-03-20T19:43:15.660Z,93.25
2023-03-20T19:45:47.158Z,94.08
2023-03-20T19:48:18.859Z,92.65
2023-03-20T19:50:51.116Z,92.24
2023-03-20T19:53:24.923Z,92.13
2023-03-20T19:55:56.537Z,91.08
2023-03-20T19:58:28.480Z,92.33
2023-03-20T20:01:00.430Z,90.80
2023-03-20T20:03:32.439Z,91.21
2023-03-20T20:06:04.616Z,89.79
2023-03-20T20:08:47.819Z,89.87
2023-03-20T20:11:20.157Z,89.23
2023-03-20T20:14:09.307Z,89.16
2023-03-20T20:16:42.986Z,88.45
2023-03-20T20:19:15.123Z,89.02
2023-03-20T20:22:19.979Z,88.25
2023-03-20T20:24:39.636Z,88.20
2023-03-20T20:27:18.221Z,88.13
2023-03-20T20:29:50.489Z,87.28
2023-03-20T20:32:23.141Z,86.40
2023-03-20T20:40:38.365Z,87.15
2023-03-20T20:43:10.974Z,86.38
2023-03-20T20:45:42.624Z,88.07
2023-03-20T20:48:14.633Z,87.33
2023-03-20T20:50:46.592Z,86.93
2023-03-20T20:53:18.098Z,86.44
2023-03-20T20:55:49.603Z,86.36
2023-03-20T20:58:21.434Z,86.93
2023-03-20T21:00:55.498Z,87.30
2023-03-20T21:03:29.200Z,87.49
2023-03-20T21:06:00.866Z,86.75
2023-03-20T21:08:34.687Z,87.11
2023-03-20T21:11:06.931Z,88.04
2023-03-20T21:13:38.764Z,87.14
2023-03-20T21:16:10.361Z,87.09
2023-03-20T21:18:42.135Z,87.83
2023-03-20T21:21:13.682Z,87.12
2023-03-20T21:23:45.601Z,86.74
2023-03-20T21:26:17.579Z,87.38
2023-03-20T21:28:49.436Z,88.42
2023-03-20T21:31:26.548Z,88.31
2023-03-20T21:33:59.562Z,87.76
2023-03-20T21:36:31.764Z,87.77
2023-03-20T21:39:08.741Z,88.16
2023-03-20T21:41:41.193Z,88.46
2023-03-20T21:44:17.437Z,88.30
2023-03-20T21:47:39.832Z,87.22
2023-03-20T21:58:56.446Z,87.99
2023-03-20T22:04:54.831Z,88.28
2023-03-20T22:10:28.708Z,88.78
2023-03-20T22:13:20.798Z,88.88
2023-03-20T22:16:10.946Z,88.94
2023-03-20T22:19:18.344Z,89.11
2023-03-20T22:39:05.213Z,89.44
2023-03-20T22:44:50.052Z,89.11
2023-03-20T22:46:56.938Z,89.07
2023-03-20T22:49:28.825Z,88.60
2023-03-20T22:52:24.404Z,87.91
2023-03-20T22:54:52.811Z,88.67
2023-03-20T22:57:31.694Z,88.03
2023-03-20T23:00:10.770Z,87.83
2023-03-20T23:02:42.288Z,88.69
2023-03-20T23:05:14.194Z,88.05
2023-03-20T23:07:46.109Z,88.41
2023-03-20T23:10:17.910Z,89.05
2023-03-20T23:12:49.519Z,89.16
2023-03-20T23:15:21.049Z,89.25
2023-03-20T23:17:52.538Z,89.77
2023-03-20T23:20:24.422Z,89.48
2023-03-20T23:22:55.920Z,89.55
2023-03-20T23:25:38.704Z,89.16
2023-03-20T23:28:11.394Z,89.27
2023-03-20T23:30:49.766Z,89.52
2023-03-20T23:33:25.533Z,89.64
2023-03-20T23:36:01.134Z,89.46
2023-03-20T23:38:40.345Z,89.70
2023-03-20T23:41:12.080Z,89.83
2023-03-20T23:43:44.173Z,90.14
2023-03-20T23:46:15.781Z,89.65
2023-03-20T23:48:47.691Z,89.93
2023-03-20T23:51:19.200Z,90.24
2023-03-20T23:53:51.109Z,90.37
2023-03-20T23:56:22.661Z,90.91
2023-03-20T23:59:01.131Z,90.80
